sensor_id;sensor_type;location;lat;lon;timestamp;P1;durP1;ratioP1;P2;durP2;ratioP2
59054;SDS011;44845;51.444;7.460;2022-07-30T00:02:13;6.10;;;3.13;;
59054;SDS011;44845;51.444;7.460;2022-07-30T00:04:40;5.40;;;3.35;;
59054;SDS011;44845;51.444;7.460;2022-07-30T00:07:05;6.33;;;3.10;;
59054;SDS011;44845;51.444;7.460;2022-07-30T00:09:30;6.97;;;2.83;;
59054;SDS011;44845;51.444;7.460;2022-07-30T00:11:55;4.60;;;3.20;;
59054;SDS011;44845;51.444;7.460;2022-07-30T00:14:21;5.40;;;2.93;;
59054;SDS011;44845;51.444;7.460;2022-07-30T00:16:46;4.50;;;2.90;;
59054;SDS011;44845;51.444;7.460;2022-07-30T00:19:11;7.55;;;3.08;;
59054;SDS011;44845;51.444;7.460;2022-07-30T00:21:36;5.07;;;2.93;;
59054;SDS011;44845;51.444;7.460;2022-07-30T00:24:02;4.40;;;2.80;;
59054;SDS011;44845;51.444;7.460;2022-07-30T00:26:28;7.13;;;3.03;;
59054;SDS011;44845;51.444;7.460;2022-07-30T00:28:53;7.60;;;3.20;;
59054;SDS011;44845;51.444;7.460;2022-07-30T00:31:18;3.67;;;2.60;;
59054;SDS011;44845;51.444;7.460;2022-07-30T00:33:43;7.37;;;3.10;;
59054;SDS011;44845;51.444;7.460;2022-07-30T00:36:08;6.77;;;2.80;;
59054;SDS011;44845;51.444;7.460;2022-07-30T00:38:34;6.20;;;3.10;;
59054;SDS011;44845;51.444;7.460;2022-07-30T00:40:59;10.13;;;3.73;;
59054;SDS011;44845;51.444;7.460;2022-07-30T00:43:24;5.80;;;3.13;;
59054;SDS011;44845;51.444;7.460;2022-07-30T00:45:49;8.47;;;3.00;;
59054;SDS011;44845;51.444;7.460;2022-07-30T00:48:14;6.23;;;3.10;;
59054;SDS011;44845;51.444;7.460;2022-07-30T00:50:40;5.28;;;2.80;;
59054;SDS011;44845;51.444;7.460;2022-07-30T00:53:05;6.25;;;2.97;;
59054;SDS011;44845;51.444;7.460;2022-07-30T00:55:31;8.50;;;3.40;;
59054;SDS011;44845;51.444;7.460;2022-07-30T00:57:56;7.18;;;3.20;;
59054;SDS011;44845;51.444;7.460;2022-07-30T01:00:22;6.17;;;3.20;;
59054;SDS011;44845;51.444;7.460;2022-07-30T01:02:47;4.88;;;3.30;;
59054;SDS011;44845;51.444;7.460;2022-07-30T01:05:12;8.13;;;3.72;;
59054;SDS011;44845;51.444;7.460;2022-07-30T01:07:38;8.55;;;4.32;;
59054;SDS011;44845;51.444;7.460;2022-07-30T01:10:04;6.40;;;4.00;;
59054;SDS011;44845;51.444;7.460;2022-07-30T01:12:29;5.78;;;3.75;;
59054;SDS011;44845;51.444;7.460;2022-07-30T01:14:56;6.97;;;3.83;;
59054;SDS011;44845;51.444;7.460;2022-07-30T01:17:22;7.35;;;4.30;;
59054;SDS011;44845;51.444;7.460;2022-07-30T01:19:47;5.22;;;4.28;;
59054;SDS011;44845;51.444;7.460;2022-07-30T01:24:42;9.10;;;4.55;;
59054;SDS011;44845;51.444;7.460;2022-07-30T01:27:10;7.00;;;4.10;;
59054;SDS011;44845;51.444;7.460;2022-07-30T01:29:37;7.70;;;4.35;;
59054;SDS011;44845;51.444;7.460;2022-07-30T01:32:03;6.05;;;4.20;;
59054;SDS011;44845;51.444;7.460;2022-07-30T01:34:32;8.23;;;4.10;;
59054;SDS011;44845;51.444;7.460;2022-07-30T01:36:58;7.68;;;3.80;;
59054;SDS011;44845;51.444;7.460;2022-07-30T01:39:24;8.27;;;3.50;;
59054;SDS011;44845;51.444;7.460;2022-07-30T01:41:50;7.90;;;3.40;;
59054;SDS011;44845;51.444;7.460;2022-07-30T01:44:16;7.95;;;3.80;;
59054;SDS011;44845;51.444;7.460;2022-07-30T01:46:42;4.20;;;3.80;;
59054;SDS011;44845;51.444;7.460;2022-07-30T01:49:07;6.95;;;3.63;;
59054;SDS011;44845;51.444;7.460;2022-07-30T01:51:33;8.82;;;3.53;;
59054;SDS011;44845;51.444;7.460;2022-07-30T01:53:59;6.13;;;3.72;;
59054;SDS011;44845;51.444;7.460;2022-07-30T01:56:25;6.90;;;3.83;;
59054;SDS011;44845;51.444;7.460;2022-07-30T01:58:51;4.70;;;3.42;;
59054;SDS011;44845;51.444;7.460;2022-07-30T02:01:18;7.15;;;3.85;;
59054;SDS011;44845;51.444;7.460;2022-07-30T02:03:43;10.23;;;4.23;;
59054;SDS011;44845;51.444;7.460;2022-07-30T02:06:11;8.52;;;4.32;;
59054;SDS011;44845;51.444;7.460;2022-07-30T02:08:42;5.07;;;3.53;;
59054;SDS011;44845;51.444;7.460;2022-07-30T02:11:09;6.93;;;3.80;;
59054;SDS011;44845;51.444;7.460;2022-07-30T02:13:46;9.82;;;3.80;;
59054;SDS011;44845;51.444;7.460;2022-07-30T02:16:14;7.50;;;3.97;;
59054;SDS011;44845;51.444;7.460;2022-07-30T02:21:11;8.38;;;3.92;;
59054;SDS011;44845;51.444;7.460;2022-07-30T02:23:38;6.85;;;4.35;;
59054;SDS011;44845;51.444;7.460;2022-07-30T02:26:03;8.23;;;4.60;;
59054;SDS011;44845;51.444;7.460;2022-07-30T02:28:29;8.05;;;4.35;;
59054;SDS011;44845;51.444;7.460;2022-07-30T02:30:58;7.55;;;4.70;;
59054;SDS011;44845;51.444;7.460;2022-07-30T02:33:25;6.80;;;4.95;;
59054;SDS011;44845;51.444;7.460;2022-07-30T02:35:51;8.57;;;4.60;;
59054;SDS011;44845;51.444;7.460;2022-07-30T02:38:18;8.70;;;5.13;;
59054;SDS011;44845;51.444;7.460;2022-07-30T02:40:44;7.47;;;5.05;;
59054;SDS011;44845;51.444;7.460;2022-07-30T02:43:10;19.33;;;5.38;;
59054;SDS011;44845;51.444;7.460;2022-07-30T02:45:38;6.03;;;4.25;;
59054;SDS011;44845;51.444;7.460;2022-07-30T02:48:05;9.02;;;4.47;;
59054;SDS011;44845;51.444;7.460;2022-07-30T02:50:31;8.48;;;5.10;;
59054;SDS011;44845;51.444;7.460;2022-07-30T02:52:58;8.75;;;5.18;;
59054;SDS011;44845;51.444;7.460;2022-07-30T02:55:24;7.35;;;5.32;;
59054;SDS011;44845;51.444;7.460;2022-07-30T02:57:50;7.32;;;5.53;;
59054;SDS011;44845;51.444;7.460;2022-07-30T03:00:16;7.20;;;4.68;;
59054;SDS011;44845;51.444;7.460;2022-07-30T03:02:41;7.70;;;4.75;;
59054;SDS011;44845;51.444;7.460;2022-07-30T03:05:07;10.88;;;5.57;;
59054;SDS011;44845;51.444;7.460;2022-07-30T03:07:33;8.45;;;5.32;;
59054;SDS011;44845;51.444;7.460;2022-07-30T03:09:59;9.77;;;5.57;;
59054;SDS011;44845;51.444;7.460;2022-07-30T03:12:25;10.00;;;5.03;;
59054;SDS011;44845;51.444;7.460;2022-07-30T03:14:53;10.00;;;4.75;;
59054;SDS011;44845;51.444;7.460;2022-07-30T03:17:18;7.78;;;4.38;;
59054;SDS011;44845;51.444;7.460;2022-07-30T03:19:44;5.05;;;4.20;;
59054;SDS011;44845;51.444;7.460;2022-07-30T03:22:09;7.10;;;4.32;;
59054;SDS011;44845;51.444;7.460;2022-07-30T03:24:35;8.93;;;4.50;;
59054;SDS011;44845;51.444;7.460;2022-07-30T03:27:01;5.82;;;4.75;;
59054;SDS011;44845;51.444;7.460;2022-07-30T03:29:28;8.95;;;4.82;;
59054;SDS011;44845;51.444;7.460;2022-07-30T03:31:54;10.10;;;4.78;;
59054;SDS011;44845;51.444;7.460;2022-07-30T03:34:20;8.82;;;4.60;;
59054;SDS011;44845;51.444;7.460;2022-07-30T03:36:45;5.13;;;4.63;;
59054;SDS011;44845;51.444;7.460;2022-07-30T03:39:11;10.43;;;4.45;;
59054;SDS011;44845;51.444;7.460;2022-07-30T03:41:37;5.47;;;4.50;;
59054;SDS011;44845;51.444;7.460;2022-07-30T03:44:03;7.63;;;5.20;;
59054;SDS011;44845;51.444;7.460;2022-07-30T03:46:28;7.32;;;5.65;;
59054;SDS011;44845;51.444;7.460;2022-07-30T03:48:53;10.40;;;6.03;;
59054;SDS011;44845;51.444;7.460;2022-07-30T03:51:19;7.65;;;5.60;;
59054;SDS011;44845;51.444;7.460;2022-07-30T03:53:44;5.57;;;4.80;;
59054;SDS011;44845;51.444;7.460;2022-07-30T03:56:11;10.43;;;5.10;;
59054;SDS011;44845;51.444;7.460;2022-07-30T03:58:36;8.48;;;5.15;;
59054;SDS011;44845;51.444;7.460;2022-07-30T04:01:02;7.15;;;5.05;;
59054;SDS011;44845;51.444;7.460;2022-07-30T04:03:29;8.27;;;4.80;;
59054;SDS011;44845;51.444;7.460;2022-07-30T04:05:54;8.85;;;5.03;;
59054;SDS011;44845;51.444;7.460;2022-07-30T04:08:19;8.33;;;5.40;;
59054;SDS011;44845;51.444;7.460;2022-07-30T04:10:45;10.97;;;6.20;;
59054;SDS011;44845;51.444;7.460;2022-07-30T04:13:10;9.75;;;6.40;;
59054;SDS011;44845;51.444;7.460;2022-07-30T04:15:47;11.15;;;6.72;;
59054;SDS011;44845;51.444;7.460;2022-07-30T04:18:13;9.80;;;7.35;;
59054;SDS011;44845;51.444;7.460;2022-07-30T04:20:40;9.95;;;6.70;;
59054;SDS011;44845;51.444;7.460;2022-07-30T04:23:06;11.05;;;7.28;;
59054;SDS011;44845;51.444;7.460;2022-07-30T04:25:31;11.07;;;7.50;;
59054;SDS011;44845;51.444;7.460;2022-07-30T04:27:56;9.77;;;6.80;;
59054;SDS011;44845;51.444;7.460;2022-07-30T04:30:22;10.77;;;7.45;;
59054;SDS011;44845;51.444;7.460;2022-07-30T04:32:47;9.60;;;6.90;;
59054;SDS011;44845;51.444;7.460;2022-07-30T04:35:12;12.23;;;7.03;;
59054;SDS011;44845;51.444;7.460;2022-07-30T04:37:38;9.87;;;7.03;;
59054;SDS011;44845;51.444;7.460;2022-07-30T04:40:03;13.20;;;8.03;;
59054;SDS011;44845;51.444;7.460;2022-07-30T04:42:28;10.02;;;7.47;;
59054;SDS011;44845;51.444;7.460;2022-07-30T04:44:54;10.03;;;8.07;;
59054;SDS011;44845;51.444;7.460;2022-07-30T04:47:19;10.48;;;8.25;;
59054;SDS011;44845;51.444;7.460;2022-07-30T04:49:45;11.32;;;9.13;;
59054;SDS011;44845;51.444;7.460;2022-07-30T04:52:10;13.55;;;9.68;;
59054;SDS011;44845;51.444;7.460;2022-07-30T04:54:37;14.00;;;9.10;;
59054;SDS011;44845;51.444;7.460;2022-07-30T04:57:03;11.45;;;8.20;;
59054;SDS011;44845;51.444;7.460;2022-07-30T04:59:28;11.93;;;8.20;;
59054;SDS011;44845;51.444;7.460;2022-07-30T05:01:54;13.02;;;8.57;;
59054;SDS011;44845;51.444;7.460;2022-07-30T05:04:21;10.85;;;8.48;;
59054;SDS011;44845;51.444;7.460;2022-07-30T05:06:47;12.90;;;8.88;;
59054;SDS011;44845;51.444;7.460;2022-07-30T05:09:13;13.77;;;8.88;;
59054;SDS011;44845;51.444;7.460;2022-07-30T05:11:39;15.05;;;8.93;;
59054;SDS011;44845;51.444;7.460;2022-07-30T05:14:05;15.43;;;10.23;;
59054;SDS011;44845;51.444;7.460;2022-07-30T05:16:30;13.77;;;9.73;;
59054;SDS011;44845;51.444;7.460;2022-07-30T05:18:58;15.52;;;10.52;;
59054;SDS011;44845;51.444;7.460;2022-07-30T05:21:23;14.57;;;10.60;;
59054;SDS011;44845;51.444;7.460;2022-07-30T05:23:48;13.40;;;10.17;;
59054;SDS011;44845;51.444;7.460;2022-07-30T05:26:13;14.23;;;10.10;;
59054;SDS011;44845;51.444;7.460;2022-07-30T05:28:38;14.40;;;10.80;;
59054;SDS011;44845;51.444;7.460;2022-07-30T05:31:03;12.17;;;9.93;;
59054;SDS011;44845;51.444;7.460;2022-07-30T05:33:28;14.97;;;10.73;;
59054;SDS011;44845;51.444;7.460;2022-07-30T05:35:54;13.47;;;10.83;;
59054;SDS011;44845;51.444;7.460;2022-07-30T05:38:19;16.13;;;11.07;;
59054;SDS011;44845;51.444;7.460;2022-07-30T05:40:44;18.70;;;11.47;;
59054;SDS011;44845;51.444;7.460;2022-07-30T05:43:10;16.45;;;10.63;;
59054;SDS011;44845;51.444;7.460;2022-07-30T05:45:35;17.08;;;10.77;;
59054;SDS011;44845;51.444;7.460;2022-07-30T05:48:01;15.60;;;11.33;;
59054;SDS011;44845;51.444;7.460;2022-07-30T05:50:26;15.03;;;12.13;;
59054;SDS011;44845;51.444;7.460;2022-07-30T05:52:51;17.07;;;11.90;;
59054;SDS011;44845;51.444;7.460;2022-07-30T05:55:16;16.87;;;11.67;;
59054;SDS011;44845;51.444;7.460;2022-07-30T05:57:41;16.77;;;12.10;;
59054;SDS011;44845;51.444;7.460;2022-07-30T06:00:07;16.07;;;11.87;;
59054;SDS011;44845;51.444;7.460;2022-07-30T06:02:32;18.50;;;11.88;;
59054;SDS011;44845;51.444;7.460;2022-07-30T06:04:58;14.97;;;12.23;;
59054;SDS011;44845;51.444;7.460;2022-07-30T06:07:23;15.17;;;11.83;;
59054;SDS011;44845;51.444;7.460;2022-07-30T06:09:48;16.05;;;12.68;;
59054;SDS011;44845;51.444;7.460;2022-07-30T06:12:14;19.57;;;12.57;;
59054;SDS011;44845;51.444;7.460;2022-07-30T06:14:39;17.23;;;11.93;;
59054;SDS011;44845;51.444;7.460;2022-07-30T06:17:04;17.07;;;12.13;;
59054;SDS011;44845;51.444;7.460;2022-07-30T06:19:29;17.50;;;11.13;;
59054;SDS011;44845;51.444;7.460;2022-07-30T06:21:54;14.43;;;11.55;;
59054;SDS011;44845;51.444;7.460;2022-07-30T06:24:19;18.50;;;12.30;;
59054;SDS011;44845;51.444;7.460;2022-07-30T06:26:45;16.17;;;12.00;;
59054;SDS011;44845;51.444;7.460;2022-07-30T06:29:10;18.03;;;12.10;;
59054;SDS011;44845;51.444;7.460;2022-07-30T06:31:35;16.55;;;11.90;;
59054;SDS011;44845;51.444;7.460;2022-07-30T06:34:03;17.58;;;11.50;;
59054;SDS011;44845;51.444;7.460;2022-07-30T06:36:29;16.48;;;11.32;;
59054;SDS011;44845;51.444;7.460;2022-07-30T06:38:54;16.58;;;11.27;;
59054;SDS011;44845;51.444;7.460;2022-07-30T06:41:19;22.97;;;11.47;;
59054;SDS011;44845;51.444;7.460;2022-07-30T06:43:44;20.43;;;11.47;;
59054;SDS011;44845;51.444;7.460;2022-07-30T06:46:10;23.50;;;13.70;;
59054;SDS011;44845;51.444;7.460;2022-07-30T06:48:35;20.80;;;12.20;;
59054;SDS011;44845;51.444;7.460;2022-07-30T06:51:01;16.70;;;12.18;;
59054;SDS011;44845;51.444;7.460;2022-07-30T06:53:26;21.00;;;12.80;;
59054;SDS011;44845;51.444;7.460;2022-07-30T06:55:51;17.67;;;12.70;;
59054;SDS011;44845;51.444;7.460;2022-07-30T06:58:16;20.60;;;12.50;;
59054;SDS011;44845;51.444;7.460;2022-07-30T07:00:42;22.63;;;13.30;;
59054;SDS011;44845;51.444;7.460;2022-07-30T07:03:08;21.02;;;14.07;;
59054;SDS011;44845;51.444;7.460;2022-07-30T07:05:34;28.33;;;15.27;;
59054;SDS011;44845;51.444;7.460;2022-07-30T07:07:59;23.43;;;14.77;;
59054;SDS011;44845;51.444;7.460;2022-07-30T07:10:24;28.02;;;15.95;;
59054;SDS011;44845;51.444;7.460;2022-07-30T07:12:49;26.70;;;15.65;;
59054;SDS011;44845;51.444;7.460;2022-07-30T07:15:14;26.70;;;16.37;;
59054;SDS011;44845;51.444;7.460;2022-07-30T07:17:40;27.08;;;16.67;;
59054;SDS011;44845;51.444;7.460;2022-07-30T07:20:05;32.20;;;17.52;;
59054;SDS011;44845;51.444;7.460;2022-07-30T07:22:31;31.45;;;19.10;;
59054;SDS011;44845;51.444;7.460;2022-07-30T07:24:56;38.60;;;20.80;;
59054;SDS011;44845;51.444;7.460;2022-07-30T07:27:21;31.20;;;20.20;;
59054;SDS011;44845;51.444;7.460;2022-07-30T07:29:46;39.47;;;21.90;;
59054;SDS011;44845;51.444;7.460;2022-07-30T07:32:12;32.37;;;21.87;;
59054;SDS011;44845;51.444;7.460;2022-07-30T07:34:37;32.70;;;21.17;;
59054;SDS011;44845;51.444;7.460;2022-07-30T07:37:02;39.17;;;20.80;;
59054;SDS011;44845;51.444;7.460;2022-07-30T07:39:27;32.40;;;21.83;;
59054;SDS011;44845;51.444;7.460;2022-07-30T07:41:52;40.38;;;23.70;;
59054;SDS011;44845;51.444;7.460;2022-07-30T07:44:17;41.03;;;24.97;;
59054;SDS011;44845;51.444;7.460;2022-07-30T07:46:43;32.97;;;25.10;;
59054;SDS011;44845;51.444;7.460;2022-07-30T07:49:08;38.33;;;28.20;;
59054;SDS011;44845;51.444;7.460;2022-07-30T07:51:33;37.37;;;28.90;;
59054;SDS011;44845;51.444;7.460;2022-07-30T07:54:00;43.78;;;30.40;;
59054;SDS011;44845;51.444;7.460;2022-07-30T07:56:25;46.40;;;33.70;;
59054;SDS011;44845;51.444;7.460;2022-07-30T07:58:50;50.50;;;34.33;;
59054;SDS011;44845;51.444;7.460;2022-07-30T08:01:18;50.45;;;35.53;;
59054;SDS011;44845;51.444;7.460;2022-07-30T08:03:43;49.90;;;36.87;;
59054;SDS011;44845;51.444;7.460;2022-07-30T08:06:08;49.85;;;36.15;;
59054;SDS011;44845;51.444;7.460;2022-07-30T08:08:33;52.90;;;36.93;;
59054;SDS011;44845;51.444;7.460;2022-07-30T08:11:00;48.00;;;36.70;;
59054;SDS011;44845;51.444;7.460;2022-07-30T08:13:25;56.77;;;41.47;;
59054;SDS011;44845;51.444;7.460;2022-07-30T08:15:50;52.92;;;40.10;;
59054;SDS011;44845;51.444;7.460;2022-07-30T08:18:16;51.97;;;37.33;;
59054;SDS011;44845;51.444;7.460;2022-07-30T08:20:41;51.07;;;39.77;;
59054;SDS011;44845;51.444;7.460;2022-07-30T08:23:06;52.87;;;40.17;;
59054;SDS011;44845;51.444;7.460;2022-07-30T08:25:32;48.17;;;40.05;;
59054;SDS011;44845;51.444;7.460;2022-07-30T08:27:57;51.67;;;40.47;;
59054;SDS011;44845;51.444;7.460;2022-07-30T08:30:24;50.30;;;39.15;;
59054;SDS011;44845;51.444;7.460;2022-07-30T08:32:49;48.28;;;40.00;;
59054;SDS011;44845;51.444;7.460;2022-07-30T08:35:15;49.10;;;38.47;;
59054;SDS011;44845;51.444;7.460;2022-07-30T08:37:40;48.87;;;37.73;;
59054;SDS011;44845;51.444;7.460;2022-07-30T08:40:06;46.22;;;35.28;;
59054;SDS011;44845;51.444;7.460;2022-07-30T08:42:33;45.75;;;34.25;;
59054;SDS011;44845;51.444;7.460;2022-07-30T08:44:58;40.35;;;31.00;;
59054;SDS011;44845;51.444;7.460;2022-07-30T08:47:25;39.63;;;30.33;;
59054;SDS011;44845;51.444;7.460;2022-07-30T08:49:51;37.70;;;26.70;;
59054;SDS011;44845;51.444;7.460;2022-07-30T08:52:17;35.58;;;24.83;;
59054;SDS011;44845;51.444;7.460;2022-07-30T08:54:43;34.22;;;23.98;;
59054;SDS011;44845;51.444;7.460;2022-07-30T08:57:08;35.83;;;25.47;;
59054;SDS011;44845;51.444;7.460;2022-07-30T08:59:33;35.87;;;24.33;;
59054;SDS011;44845;51.444;7.460;2022-07-30T09:01:58;35.28;;;23.00;;
59054;SDS011;44845;51.444;7.460;2022-07-30T09:04:23;38.80;;;24.87;;
59054;SDS011;44845;51.444;7.460;2022-07-30T09:06:49;47.80;;;26.55;;
59054;SDS011;44845;51.444;7.460;2022-07-30T09:09:14;37.83;;;25.07;;
59054;SDS011;44845;51.444;7.460;2022-07-30T09:11:39;47.33;;;28.40;;
59054;SDS011;44845;51.444;7.460;2022-07-30T09:14:11;45.60;;;27.33;;
59054;SDS011;44845;51.444;7.460;2022-07-30T09:16:37;41.65;;;26.75;;
59054;SDS011;44845;51.444;7.460;2022-07-30T09:21:36;48.67;;;28.63;;
59054;SDS011;44845;51.444;7.460;2022-07-30T09:24:02;57.87;;;32.80;;
59054;SDS011;44845;51.444;7.460;2022-07-30T09:26:28;53.17;;;30.90;;
59054;SDS011;44845;51.444;7.460;2022-07-30T09:28:54;56.42;;;33.55;;
59054;SDS011;44845;51.444;7.460;2022-07-30T09:31:20;55.15;;;30.77;;
59054;SDS011;44845;51.444;7.460;2022-07-30T09:33:45;50.88;;;29.10;;
59054;SDS011;44845;51.444;7.460;2022-07-30T09:36:12;56.70;;;30.23;;
59054;SDS011;44845;51.444;7.460;2022-07-30T09:38:47;58.55;;;32.13;;
59054;SDS011;44845;51.444;7.460;2022-07-30T09:41:13;68.28;;;36.05;;
59054;SDS011;44845;51.444;7.460;2022-07-30T09:43:43;71.80;;;37.45;;
59054;SDS011;44845;51.444;7.460;2022-07-30T09:46:08;63.75;;;35.30;;
59054;SDS011;44845;51.444;7.460;2022-07-30T09:48:34;59.17;;;34.00;;
59054;SDS011;44845;51.444;7.460;2022-07-30T09:50:59;55.63;;;30.50;;
59054;SDS011;44845;51.444;7.460;2022-07-30T09:53:24;51.83;;;29.63;;
59054;SDS011;44845;51.444;7.460;2022-07-30T09:55:50;53.92;;;28.85;;
59054;SDS011;44845;51.444;7.460;2022-07-30T09:58:15;45.47;;;26.08;;
59054;SDS011;44845;51.444;7.460;2022-07-30T10:00:40;44.08;;;24.58;;
59054;SDS011;44845;51.444;7.460;2022-07-30T10:03:19;41.28;;;23.00;;
59054;SDS011;44845;51.444;7.460;2022-07-30T10:08:15;43.50;;;24.80;;
59054;SDS011;44845;51.444;7.460;2022-07-30T10:10:40;41.78;;;23.42;;
59054;SDS011;44845;51.444;7.460;2022-07-30T10:13:05;31.60;;;18.80;;
59054;SDS011;44845;51.444;7.460;2022-07-30T10:15:33;30.25;;;17.60;;
59054;SDS011;44845;51.444;7.460;2022-07-30T10:17:58;30.30;;;19.70;;
59054;SDS011;44845;51.444;7.460;2022-07-30T10:20:25;39.45;;;21.30;;
59054;SDS011;44845;51.444;7.460;2022-07-30T10:22:50;40.15;;;21.75;;
59054;SDS011;44845;51.444;7.460;2022-07-30T10:25:17;30.20;;;21.02;;
59054;SDS011;44845;51.444;7.460;2022-07-30T10:27:42;28.60;;;18.70;;
59054;SDS011;44845;51.444;7.460;2022-07-30T10:30:08;30.60;;;20.08;;
59054;SDS011;44845;51.444;7.460;2022-07-30T10:32:33;36.97;;;21.17;;
59054;SDS011;44845;51.444;7.460;2022-07-30T10:34:58;34.57;;;20.47;;
59054;SDS011;44845;51.444;7.460;2022-07-30T10:37:24;31.38;;;18.98;;
59054;SDS011;44845;51.444;7.460;2022-07-30T10:42:43;31.83;;;19.23;;
59054;SDS011;44845;51.444;7.460;2022-07-30T10:47:47;28.73;;;17.13;;
59054;SDS011;44845;51.444;7.460;2022-07-30T10:50:14;25.15;;;16.42;;
59054;SDS011;44845;51.444;7.460;2022-07-30T10:55:13;33.55;;;18.00;;
59054;SDS011;44845;51.444;7.460;2022-07-30T11:00:23;22.10;;;16.17;;
59054;SDS011;44845;51.444;7.460;2022-07-30T11:03:09;26.65;;;19.27;;
59054;SDS011;44845;51.444;7.460;2022-07-30T11:05:35;21.98;;;15.75;;
59054;SDS011;44845;51.444;7.460;2022-07-30T11:10:44;20.98;;;15.45;;
59054;SDS011;44845;51.444;7.460;2022-07-30T11:13:10;20.55;;;14.43;;
59054;SDS011;44845;51.444;7.460;2022-07-30T11:18:19;15.02;;;10.60;;
59054;SDS011;44845;51.444;7.460;2022-07-30T11:21:12;11.02;;;8.63;;
59054;SDS011;44845;51.444;7.460;2022-07-30T11:23:36;12.38;;;8.82;;
59054;SDS011;44845;51.444;7.460;2022-07-30T11:26:02;10.48;;;6.80;;
59054;SDS011;44845;51.444;7.460;2022-07-30T11:28:35;6.97;;;5.45;;
59054;SDS011;44845;51.444;7.460;2022-07-30T11:31:01;8.75;;;5.60;;
59054;SDS011;44845;51.444;7.460;2022-07-30T11:33:26;8.25;;;5.70;;
59054;SDS011;44845;51.444;7.460;2022-07-30T11:36:12;7.47;;;5.80;;
59054;SDS011;44845;51.444;7.460;2022-07-30T11:38:56;9.35;;;5.65;;
59054;SDS011;44845;51.444;7.460;2022-07-30T11:41:21;9.02;;;5.60;;
59054;SDS011;44845;51.444;7.460;2022-07-30T11:43:47;6.78;;;5.00;;
59054;SDS011;44845;51.444;7.460;2022-07-30T11:46:16;5.15;;;4.47;;
59054;SDS011;44845;51.444;7.460;2022-07-30T11:48:59;8.43;;;5.10;;
59054;SDS011;44845;51.444;7.460;2022-07-30T11:51:25;7.65;;;4.88;;
59054;SDS011;44845;51.444;7.460;2022-07-30T11:54:00;9.35;;;5.10;;
59054;SDS011;44845;51.444;7.460;2022-07-30T11:56:26;11.18;;;5.82;;
59054;SDS011;44845;51.444;7.460;2022-07-30T11:58:51;10.03;;;6.17;;
59054;SDS011;44845;51.444;7.460;2022-07-30T12:01:24;6.57;;;5.87;;
59054;SDS011;44845;51.444;7.460;2022-07-30T12:03:49;9.33;;;6.60;;
59054;SDS011;44845;51.444;7.460;2022-07-30T12:06:14;9.77;;;6.50;;
59054;SDS011;44845;51.444;7.460;2022-07-30T12:08:48;10.02;;;6.90;;
59054;SDS011;44845;51.444;7.460;2022-07-30T12:11:13;9.88;;;6.80;;
59054;SDS011;44845;51.444;7.460;2022-07-30T12:13:40;8.30;;;7.13;;
59054;SDS011;44845;51.444;7.460;2022-07-30T12:16:12;6.65;;;6.00;;
59054;SDS011;44845;51.444;7.460;2022-07-30T12:18:37;10.52;;;6.47;;
59054;SDS011;44845;51.444;7.460;2022-07-30T12:21:05;7.77;;;5.43;;
59054;SDS011;44845;51.444;7.460;2022-07-30T12:23:32;6.95;;;4.45;;
59054;SDS011;44845;51.444;7.460;2022-07-30T12:25:58;6.88;;;4.82;;
59054;SDS011;44845;51.444;7.460;2022-07-30T12:28:27;7.90;;;5.43;;
59054;SDS011;44845;51.444;7.460;2022-07-30T12:30:53;7.60;;;5.32;;
59054;SDS011;44845;51.444;7.460;2022-07-30T12:33:19;9.07;;;5.10;;
59054;SDS011;44845;51.444;7.460;2022-07-30T12:35:48;8.02;;;4.53;;
59054;SDS011;44845;51.444;7.460;2022-07-30T12:38:14;6.20;;;4.70;;
59054;SDS011;44845;51.444;7.460;2022-07-30T12:40:53;7.63;;;4.88;;
59054;SDS011;44845;51.444;7.460;2022-07-30T12:46:02;6.93;;;4.60;;
59054;SDS011;44845;51.444;7.460;2022-07-30T12:48:29;6.88;;;4.30;;
59054;SDS011;44845;51.444;7.460;2022-07-30T12:51:12;4.73;;;3.50;;
59054;SDS011;44845;51.444;7.460;2022-07-30T12:53:37;4.33;;;3.30;;
59054;SDS011;44845;51.444;7.460;2022-07-30T12:56:36;4.77;;;2.50;;
59054;SDS011;44845;51.444;7.460;2022-07-30T12:58:56;4.78;;;2.53;;
59054;SDS011;44845;51.444;7.460;2022-07-30T13:04:05;6.00;;;2.50;;
59054;SDS011;44845;51.444;7.460;2022-07-30T13:06:31;6.90;;;2.63;;
59054;SDS011;44845;51.444;7.460;2022-07-30T13:08:56;5.95;;;2.85;;
59054;SDS011;44845;51.444;7.460;2022-07-30T13:11:25;4.65;;;2.00;;
59054;SDS011;44845;51.444;7.460;2022-07-30T13:13:50;3.72;;;1.80;;
59054;SDS011;44845;51.444;7.460;2022-07-30T13:16:16;4.97;;;2.23;;
59054;SDS011;44845;51.444;7.460;2022-07-30T13:18:41;4.75;;;2.10;;
59054;SDS011;44845;51.444;7.460;2022-07-30T13:21:07;5.00;;;2.13;;
59054;SDS011;44845;51.444;7.460;2022-07-30T13:23:33;4.72;;;1.75;;
59054;SDS011;44845;51.444;7.460;2022-07-30T13:25:58;4.03;;;1.88;;
59054;SDS011;44845;51.444;7.460;2022-07-30T13:28:23;4.30;;;1.83;;
59054;SDS011;44845;51.444;7.460;2022-07-30T13:30:49;3.33;;;1.70;;
59054;SDS011;44845;51.444;7.460;2022-07-30T13:33:15;5.97;;;1.60;;
59054;SDS011;44845;51.444;7.460;2022-07-30T13:35:40;2.63;;;1.73;;
59054;SDS011;44845;51.444;7.460;2022-07-30T13:38:06;4.47;;;1.95;;
59054;SDS011;44845;51.444;7.460;2022-07-30T13:40:31;5.25;;;1.77;;
59054;SDS011;44845;51.444;7.460;2022-07-30T13:42:57;3.97;;;1.73;;
59054;SDS011;44845;51.444;7.460;2022-07-30T13:45:22;2.33;;;1.40;;
59054;SDS011;44845;51.444;7.460;2022-07-30T13:47:48;2.40;;;1.40;;
59054;SDS011;44845;51.444;7.460;2022-07-30T13:50:13;3.65;;;1.55;;
59054;SDS011;44845;51.444;7.460;2022-07-30T13:52:38;3.67;;;1.40;;
59054;SDS011;44845;51.444;7.460;2022-07-30T13:55:03;3.50;;;1.23;;
59054;SDS011;44845;51.444;7.460;2022-07-30T13:57:28;2.63;;;1.80;;
59054;SDS011;44845;51.444;7.460;2022-07-30T13:59:54;6.47;;;1.33;;
59054;SDS011;44845;51.444;7.460;2022-07-30T14:02:19;5.00;;;1.53;;
59054;SDS011;44845;51.444;7.460;2022-07-30T14:04:44;3.35;;;1.38;;
59054;SDS011;44845;51.444;7.460;2022-07-30T14:07:09;3.45;;;1.55;;
59054;SDS011;44845;51.444;7.460;2022-07-30T14:09:34;4.00;;;2.27;;
59054;SDS011;44845;51.444;7.460;2022-07-30T14:12:00;4.63;;;1.30;;
59054;SDS011;44845;51.444;7.460;2022-07-30T14:14:25;3.38;;;1.50;;
59054;SDS011;44845;51.444;7.460;2022-07-30T14:16:50;2.40;;;1.30;;
59054;SDS011;44845;51.444;7.460;2022-07-30T14:19:16;4.03;;;1.77;;
59054;SDS011;44845;51.444;7.460;2022-07-30T14:21:42;2.25;;;1.38;;
59054;SDS011;44845;51.444;7.460;2022-07-30T14:24:07;4.03;;;1.95;;
59054;SDS011;44845;51.444;7.460;2022-07-30T14:26:32;3.05;;;1.33;;
59054;SDS011;44845;51.444;7.460;2022-07-30T14:28:57;2.87;;;1.30;;
59054;SDS011;44845;51.444;7.460;2022-07-30T14:31:22;3.73;;;1.47;;
59054;SDS011;44845;51.444;7.460;2022-07-30T14:33:48;4.07;;;1.50;;
59054;SDS011;44845;51.444;7.460;2022-07-30T14:36:13;3.30;;;1.60;;
59054;SDS011;44845;51.444;7.460;2022-07-30T14:38:38;2.97;;;1.52;;
59054;SDS011;44845;51.444;7.460;2022-07-30T14:41:04;3.20;;;1.30;;
59054;SDS011;44845;51.444;7.460;2022-07-30T14:43:29;7.05;;;1.98;;
59054;SDS011;44845;51.444;7.460;2022-07-30T14:45:55;4.90;;;1.60;;
59054;SDS011;44845;51.444;7.460;2022-07-30T14:48:20;7.50;;;1.63;;
59054;SDS011;44845;51.444;7.460;2022-07-30T14:50:45;4.00;;;1.53;;
59054;SDS011;44845;51.444;7.460;2022-07-30T14:53:10;2.67;;;1.10;;
59054;SDS011;44845;51.444;7.460;2022-07-30T14:55:35;3.53;;;1.20;;
59054;SDS011;44845;51.444;7.460;2022-07-30T14:58:00;3.27;;;1.40;;
59054;SDS011;44845;51.444;7.460;2022-07-30T15:00:26;3.93;;;1.10;;
59054;SDS011;44845;51.444;7.460;2022-07-30T15:02:51;3.40;;;1.20;;